createdAt,value
2023-02-09T00:02:41.205Z,5.30
2023-02-09T00:06:43.032Z,5.10
2023-02-09T00:10:44.958Z,5.47
2023-02-09T00:14:47.141Z,5.97
2023-02-09T00:18:49.022Z,5.83
2023-02-09T00:22:50.787Z,6.40
2023-02-09T00:26:52.618Z,5.50
2023-02-09T00:30:54.586Z,5.70
2023-02-09T00:34:56.431Z,5.70
2023-02-09T00:38:59.169Z,5.80
2023-02-09T00:43:00.982Z,6.27
2023-02-09T00:47:02.948Z,5.63
2023-02-09T00:51:05.023Z,6.00
2023-02-09T00:55:07.251Z,6.20
2023-02-09T00:59:09.445Z,5.87
2023-02-09T01:03:11.337Z,5.30
2023-02-09T01:07:17.811Z,5.67
2023-02-09T01:11:19.819Z,6.10
2023-02-09T01:15:21.690Z,6.20
2023-02-09T01:19:23.504Z,5.93
2023-02-09T01:23:25.284Z,6.43
2023-02-09T01:27:27.019Z,6.53
2023-02-09T01:31:33.958Z,7.37
2023-02-09T01:35:35.915Z,9.47
2023-02-09T01:39:37.892Z,7.67
2023-02-09T01:43:56.845Z,7.90
2023-02-09T01:48:03.609Z,8.37
2023-02-09T01:52:09.954Z,9.20
2023-02-09T01:56:17.227Z,8.30
2023-02-09T02:00:20.981Z,7.83
2023-02-09T02:04:22.809Z,8.07
2023-02-09T02:08:56.379Z,9.03
2023-02-09T02:12:58.232Z,8.53
2023-02-09T02:17:46.152Z,7.83
2023-02-09T02:22:10.424Z,8.03
2023-02-09T02:26:36.877Z,8.07
2023-02-09T02:30:58.312Z,8.73
2023-02-09T02:35:36.716Z,7.97
2023-02-09T02:40:13.285Z,8.07
2023-02-09T02:44:15.091Z,8.90
2023-02-09T02:48:37.900Z,8.50
2023-02-09T02:52:39.721Z,8.17
2023-02-09T02:56:52.308Z,7.90
2023-02-09T03:00:55.758Z,8.63
2023-02-09T03:04:57.955Z,8.73
2023-02-09T03:08:59.895Z,7.87
2023-02-09T03:13:29.118Z,8.77
2023-02-09T03:17:55.220Z,8.30
2023-02-09T03:22:18.597Z,8.13
2023-02-09T03:26:28.242Z,8.37
2023-02-09T03:30:32.201Z,8.70
2023-02-09T03:34:33.950Z,9.63
2023-02-09T03:38:35.700Z,8.40
2023-02-09T03:42:37.503Z,9.60
2023-02-09T03:46:39.761Z,9.17
2023-02-09T03:50:41.631Z,9.00
2023-02-09T03:54:43.622Z,9.43
2023-02-09T03:58:45.413Z,8.70
2023-02-09T04:02:47.507Z,8.10
2023-02-09T04:06:49.581Z,9.97
2023-02-09T04:10:51.423Z,9.77
2023-02-09T04:14:53.390Z,9.27
2023-02-09T04:18:55.329Z,9.07
2023-02-09T04:22:57.180Z,8.43
2023-02-09T04:26:59.068Z,8.37
2023-02-09T04:31:04.325Z,9.47
2023-02-09T04:35:06.876Z,8.30
2023-02-09T04:39:08.753Z,9.10
2023-02-09T04:43:10.549Z,9.17
2023-02-09T04:47:12.442Z,9.47
2023-02-09T04:51:14.265Z,8.93
2023-02-09T04:55:16.226Z,8.93
2023-02-09T04:59:41.321Z,8.83
2023-02-09T05:03:43.292Z,9.07
2023-02-09T05:07:45.433Z,9.20
2023-02-09T05:11:47.372Z,10.00
2023-02-09T05:15:49.389Z,11.00
2023-02-09T05:19:51.169Z,10.00
2023-02-09T05:23:53.033Z,10.33
2023-02-09T05:27:54.945Z,10.30
2023-02-09T05:31:56.934Z,11.63
2023-02-09T05:35:58.942Z,13.67
2023-02-09T05:40:00.796Z,11.87
2023-02-09T05:44:03.889Z,11.60
2023-02-09T05:48:05.954Z,11.90
2023-02-09T05:52:17.374Z,11.47
2023-02-09T05:56:19.582Z,12.50
2023-02-09T06:00:31.691Z,11.83
2023-02-09T06:04:40.887Z,13.20
2023-02-09T06:08:43.526Z,13.23
2023-02-09T06:12:48.240Z,16.23
2023-02-09T06:17:00.761Z,16.77
2023-02-09T06:21:02.882Z,12.93
2023-02-09T06:25:05.295Z,12.17
2023-02-09T06:29:08.070Z,11.83
2023-02-09T06:33:12.518Z,14.37
2023-02-09T06:37:28.974Z,12.30
2023-02-09T06:41:31.014Z,13.03
2023-02-09T06:45:32.912Z,13.63
2023-02-09T06:49:34.863Z,14.30
2023-02-09T06:53:38.369Z,13.00
2023-02-09T06:57:43.076Z,15.80
2023-02-09T07:01:56.377Z,14.27
2023-02-09T07:06:25.697Z,13.80
2023-02-09T07:10:30.699Z,13.97
2023-02-09T07:14:32.599Z,13.70
2023-02-09T07:18:34.976Z,14.37
2023-02-09T07:22:37.243Z,13.70
2023-02-09T07:26:39.259Z,10.73
2023-02-09T07:30:44.781Z,11.37
2023-02-09T07:34:47.449Z,10.97
2023-02-09T07:38:57.216Z,11.60
2023-02-09T07:43:00.380Z,11.37
2023-02-09T07:47:09.525Z,10.63
2023-02-09T07:51:20.172Z,11.33
2023-02-09T07:55:27.323Z,11.40
2023-02-09T07:59:29.373Z,11.87
2023-02-09T08:03:37.476Z,11.67
2023-02-09T08:07:39.639Z,13.30
2023-02-09T08:11:48.366Z,11.27
2023-02-09T08:16:07.073Z,12.20
2023-02-09T08:20:15.981Z,12.07
2023-02-09T08:24:18.810Z,11.93
2023-02-09T08:28:34.891Z,12.13
2023-02-09T08:32:45.670Z,12.30
2023-02-09T08:36:56.649Z,13.30
2023-02-09T08:40:58.872Z,12.27
2023-02-09T08:45:03.457Z,11.97
2023-02-09T08:49:17.826Z,13.27
2023-02-09T08:53:32.288Z,13.70
2023-02-09T08:57:45.160Z,14.43
2023-02-09T09:01:59.923Z,14.57
2023-02-09T09:06:37.307Z,13.90
2023-02-09T09:10:45.518Z,14.00
2023-02-09T09:14:54.454Z,14.00
2023-02-09T09:18:56.507Z,13.47
2023-02-09T09:23:00.108Z,13.93
2023-02-09T09:27:02.069Z,14.07
2023-02-09T09:31:30.838Z,13.67
2023-02-09T09:35:32.896Z,13.70
2023-02-09T09:39:34.851Z,13.73
2023-02-09T09:43:38.518Z,13.47
2023-02-09T09:47:42.434Z,12.33
2023-02-09T09:51:46.484Z,12.77
2023-02-09T09:55:48.587Z,11.67
2023-02-09T09:59:50.659Z,12.67
2023-02-09T10:03:52.512Z,11.57
2023-02-09T10:08:10.971Z,12.23
2023-02-09T10:12:26.225Z,11.97
2023-02-09T10:16:34.374Z,11.83
2023-02-09T10:21:05.199Z,11.83
2023-02-09T10:25:50.165Z,12.00
2023-02-09T10:29:52.218Z,11.43
2023-02-09T10:34:17.892Z,10.90
2023-02-09T10:38:24.757Z,11.87
2023-02-09T10:42:46.594Z,11.37
2023-02-09T10:46:48.699Z,12.00
2023-02-09T10:50:53.264Z,11.37
2023-02-09T10:55:05.481Z,11.93
2023-02-09T10:59:29.312Z,10.90
2023-02-09T11:03:31.169Z,11.67
2023-02-09T11:12:01.339Z,11.43
2023-02-09T11:16:38.090Z,10.73
2023-02-09T11:21:03.446Z,9.90
2023-02-09T11:25:27.927Z,9.63
2023-02-09T11:30:14.631Z,10.00
2023-02-09T11:34:27.991Z,10.00
2023-02-09T11:38:49.334Z,9.37
2023-02-09T11:43:22.961Z,9.00
2023-02-09T11:47:42.487Z,8.33
2023-02-09T11:51:47.288Z,8.23
2023-02-09T11:55:53.964Z,8.50
2023-02-09T11:59:58.824Z,8.97
2023-02-09T12:04:40.278Z,8.60
2023-02-09T12:09:10.464Z,8.07
2023-02-09T12:14:15.020Z,7.80
2023-02-09T12:18:22.002Z,8.40
2023-02-09T12:22:43.017Z,8.57
2023-02-09T12:26:48.223Z,8.67
2023-02-09T12:30:52.717Z,8.37
2023-02-09T12:34:55.490Z,8.60
2023-02-09T12:39:04.690Z,8.57
2023-02-09T12:43:26.134Z,7.67
2023-02-09T12:47:46.279Z,7.50
2023-02-09T12:51:54.411Z,8.57
2023-02-09T12:56:03.785Z,8.57
2023-02-09T13:00:05.591Z,9.63
2023-02-09T13:04:10.113Z,9.40
2023-02-09T13:08:13.257Z,9.20
2023-02-09T13:12:21.727Z,9.30
2023-02-09T13:16:29.416Z,9.03
2023-02-09T13:20:34.125Z,10.23
2023-02-09T13:24:48.038Z,9.30
2023-02-09T13:28:56.958Z,10.17
2023-02-09T13:33:45.729Z,11.10
2023-02-09T13:37:56.632Z,9.90
2023-02-09T13:41:59.176Z,9.17
2023-02-09T13:46:06.306Z,8.97
2023-02-09T13:50:34.844Z,10.07
2023-02-09T13:54:36.772Z,9.73
2023-02-09T13:58:41.508Z,9.00
2023-02-09T14:03:02.051Z,9.20
2023-02-09T14:07:09.797Z,9.97
2023-02-09T14:11:33.180Z,10.93
2023-02-09T14:16:08.213Z,9.00
2023-02-09T14:20:25.577Z,9.63
2023-02-09T14:24:28.797Z,9.67
2023-02-09T14:28:30.766Z,10.27
2023-02-09T14:32:37.613Z,10.03
2023-02-09T14:36:39.577Z,10.23
2023-02-09T14:40:41.565Z,9.80
2023-02-09T14:45:25.427Z,10.90
2023-02-09T14:49:28.585Z,9.90
2023-02-09T14:53:58.183Z,10.07
2023-02-09T14:58:00.201Z,10.60
2023-02-09T15:02:22.260Z,10.83
2023-02-09T15:06:27.022Z,10.53
2023-02-09T15:10:34.298Z,10.13
2023-02-09T15:14:45.806Z,10.03
2023-02-09T15:18:53.765Z,11.20
2023-02-09T15:22:56.017Z,12.30
2023-02-09T15:26:57.880Z,10.63
2023-02-09T15:31:00.029Z,10.57
2023-02-09T15:35:01.937Z,11.07
2023-02-09T15:39:04.567Z,9.87
2023-02-09T15:43:37.010Z,10.67
2023-02-09T15:47:52.801Z,9.63
2023-02-09T15:51:57.366Z,9.63
2023-02-09T15:55:59.884Z,8.13
2023-02-09T16:00:01.843Z,8.50
2023-02-09T16:04:13.473Z,8.37
2023-02-09T16:08:27.804Z,8.60
2023-02-09T16:12:29.791Z,9.10
2023-02-09T16:16:32.394Z,9.50
2023-02-09T16:20:34.487Z,10.33
2023-02-09T16:24:43.933Z,9.53
2023-02-09T16:28:47.665Z,10.03
2023-02-09T16:32:49.705Z,10.10
2023-02-09T16:36:55.645Z,10.47
2023-02-09T16:41:01.065Z,10.30
2023-02-09T16:45:04.049Z,9.40
2023-02-09T16:49:05.837Z,10.57
2023-02-09T16:53:25.412Z,10.33
2023-02-09T16:57:28.063Z,11.40
2023-02-09T17:01:34.703Z,9.90
2023-02-09T17:05:37.451Z,10.40
2023-02-09T17:09:59.919Z,9.87
2023-02-09T17:14:01.995Z,11.17
2023-02-09T17:18:09.097Z,10.53
2023-02-09T17:22:13.298Z,10.30
2023-02-09T17:26:15.629Z,10.67
2023-02-09T17:30:17.883Z,10.90
2023-02-09T17:35:13.827Z,9.43
2023-02-09T17:39:18.791Z,10.57
2023-02-09T17:43:21.093Z,10.57
2023-02-09T17:47:31.461Z,10.33
2023-02-09T17:51:37.306Z,9.77
2023-02-09T17:55:39.453Z,10.93
2023-02-09T17:59:44.069Z,10.97
2023-02-09T18:03:49.257Z,11.10
2023-02-09T18:07:57.082Z,10.97
2023-02-09T18:12:02.283Z,11.27
2023-02-09T18:16:24.664Z,11.90
2023-02-09T18:20:36.243Z,11.27
2023-02-09T18:24:46.930Z,10.20
2023-02-09T18:28:50.771Z,10.10
2023-02-09T18:33:02.709Z,10.63
2023-02-09T18:37:16.256Z,10.53
2023-02-09T18:41:34.848Z,10.13
2023-02-09T18:45:36.956Z,11.83
2023-02-09T18:49:44.817Z,10.70
2023-02-09T18:53:47.585Z,11.87
2023-02-09T18:58:08.652Z,11.70
2023-02-09T19:02:24.796Z,12.17
2023-02-09T19:06:29.786Z,12.27
2023-02-09T19:10:33.279Z,13.03
2023-02-09T19:14:42.162Z,11.23
2023-02-09T19:18:48.036Z,11.23
2023-02-09T19:22:53.266Z,11.57
2023-02-09T19:26:56.197Z,11.33
2023-02-09T19:31:00.550Z,12.23
2023-02-09T19:35:04.337Z,11.30
2023-02-09T19:39:19.417Z,11.70
2023-02-09T19:43:26.701Z,11.43
2023-02-09T19:47:39.816Z,10.67
2023-02-09T19:51:41.924Z,11.37
2023-02-09T19:55:53.829Z,11.33
2023-02-09T20:00:02.079Z,11.10
2023-02-09T20:04:11.615Z,12.83
2023-02-09T20:08:14.974Z,10.17
2023-02-09T20:12:21.214Z,10.43
2023-02-09T20:16:35.063Z,11.10
2023-02-09T20:20:52.128Z,11.47
2023-02-09T20:25:02.595Z,12.47
2023-02-09T20:29:07.031Z,9.97
2023-02-09T20:33:10.254Z,10.60
2023-02-09T20:37:14.685Z,11.07
2023-02-09T20:41:17.627Z,11.60
2023-02-09T20:45:37.961Z,11.67
2023-02-09T20:49:40.653Z,12.23
2023-02-09T20:53:42.542Z,11.00
2023-02-09T20:57:44.440Z,11.53
2023-02-09T21:01:46.325Z,12.00
2023-02-09T21:05:48.160Z,11.17
2023-02-09T21:09:50.130Z,11.53
2023-02-09T21:13:51.964Z,11.90
2023-02-09T21:17:53.819Z,11.87
2023-02-09T21:21:55.783Z,11.73
2023-02-09T21:26:09.385Z,11.27
2023-02-09T21:30:12.211Z,10.53
2023-02-09T21:34:20.061Z,11.63
2023-02-09T21:42:39.061Z,10.63
2023-02-09T21:46:41.030Z,10.07
2023-02-09T21:50:42.923Z,11.53
2023-02-09T21:54:44.900Z,11.57
2023-02-09T21:58:46.907Z,11.10
2023-02-09T22:02:54.166Z,10.47
2023-02-09T22:06:56.076Z,10.07
2023-02-09T22:11:06.054Z,9.87
2023-02-09T22:15:08.605Z,10.20
2023-02-09T22:19:10.487Z,10.10
2023-02-09T22:23:12.722Z,10.70
2023-02-09T22:27:14.726Z,11.87
2023-02-09T22:31:18.622Z,12.17
2023-02-09T22:35:20.565Z,10.83
2023-02-09T22:39:22.418Z,15.70
2023-02-09T22:43:24.238Z,10.80
2023-02-09T22:47:26.157Z,10.07
2023-02-09T22:51:29.932Z,8.80
2023-02-09T22:55:31.789Z,9.37
2023-02-09T22:59:36.273Z,8.50
2023-02-09T23:03:39.192Z,8.37
2023-02-09T23:07:41.756Z,8.13
2023-02-09T23:11:44.407Z,7.97
2023-02-09T23:15:46.659Z,7.53
2023-02-09T23:19:48.648Z,7.47
2023-02-09T23:23:50.516Z,7.10
2023-02-09T23:27:52.400Z,7.67
2023-02-09T23:31:54.350Z,7.10
2023-02-09T23:35:56.172Z,7.33
2023-02-09T23:39:58.003Z,7.23
2023-02-09T23:43:59.979Z,7.57
2023-02-09T23:48:01.871Z,7.13
2023-02-09T23:52:03.745Z,7.40
2023-02-09T23:56:05.774Z,7.13
